sensor_id;sensor_type;location;lat;lon;timestamp;P1;durP1;ratioP1;P2;durP2;ratioP2
56457;SDS011;42360;42.918;12.366;2022-08-19T00:02:04;15.30;;;5.30;;
56457;SDS011;42360;42.918;12.366;2022-08-19T00:04:31;12.63;;;3.83;;
56457;SDS011;42360;42.918;12.366;2022-08-19T00:07:03;13.57;;;4.47;;
56457;SDS011;42360;42.918;12.366;2022-08-19T00:09:29;13.48;;;3.72;;
56457;SDS011;42360;42.918;12.366;2022-08-19T00:12:02;8.88;;;3.55;;
56457;SDS011;42360;42.918;12.366;2022-08-19T00:14:40;17.48;;;4.00;;
56457;SDS011;42360;42.918;12.366;2022-08-19T00:17:06;15.05;;;4.13;;
56457;SDS011;42360;42.918;12.366;2022-08-19T00:19:34;11.48;;;4.00;;
56457;SDS011;42360;42.918;12.366;2022-08-19T00:22:00;10.13;;;4.70;;
56457;SDS011;42360;42.918;12.366;2022-08-19T00:24:27;15.68;;;4.75;;
56457;SDS011;42360;42.918;12.366;2022-08-19T00:26:54;12.90;;;5.15;;
56457;SDS011;42360;42.918;12.366;2022-08-19T00:29:21;16.60;;;5.80;;
56457;SDS011;42360;42.918;12.366;2022-08-19T00:31:48;15.77;;;4.85;;
56457;SDS011;42360;42.918;12.366;2022-08-19T00:34:15;19.90;;;5.25;;
56457;SDS011;42360;42.918;12.366;2022-08-19T00:36:41;19.25;;;4.95;;
56457;SDS011;42360;42.918;12.366;2022-08-19T00:39:08;10.90;;;3.88;;
56457;SDS011;42360;42.918;12.366;2022-08-19T00:41:34;14.52;;;4.93;;
56457;SDS011;42360;42.918;12.366;2022-08-19T00:44:05;12.88;;;4.72;;
56457;SDS011;42360;42.918;12.366;2022-08-19T00:46:33;16.02;;;4.55;;
56457;SDS011;42360;42.918;12.366;2022-08-19T00:49:00;16.23;;;4.68;;
56457;SDS011;42360;42.918;12.366;2022-08-19T00:51:30;10.52;;;4.13;;
56457;SDS011;42360;42.918;12.366;2022-08-19T00:53:57;17.88;;;4.97;;
56457;SDS011;42360;42.918;12.366;2022-08-19T00:56:24;13.73;;;4.47;;
56457;SDS011;42360;42.918;12.366;2022-08-19T00:58:52;12.82;;;4.53;;
56457;SDS011;42360;42.918;12.366;2022-08-19T01:01:18;12.40;;;4.53;;
56457;SDS011;42360;42.918;12.366;2022-08-19T01:03:43;15.25;;;4.18;;
56457;SDS011;42360;42.918;12.366;2022-08-19T01:06:09;10.63;;;4.53;;
56457;SDS011;42360;42.918;12.366;2022-08-19T01:08:35;15.23;;;4.35;;
56457;SDS011;42360;42.918;12.366;2022-08-19T01:11:00;21.20;;;4.40;;
56457;SDS011;42360;42.918;12.366;2022-08-19T01:13:27;15.77;;;4.45;;
56457;SDS011;42360;42.918;12.366;2022-08-19T01:15:56;17.63;;;5.97;;
56457;SDS011;42360;42.918;12.366;2022-08-19T01:18:24;12.45;;;3.35;;
56457;SDS011;42360;42.918;12.366;2022-08-19T01:20:51;9.30;;;4.60;;
56457;SDS011;42360;42.918;12.366;2022-08-19T01:23:17;13.00;;;4.25;;
56457;SDS011;42360;42.918;12.366;2022-08-19T01:25:48;13.02;;;4.18;;
56457;SDS011;42360;42.918;12.366;2022-08-19T01:28:16;20.70;;;5.45;;
56457;SDS011;42360;42.918;12.366;2022-08-19T01:30:44;17.90;;;5.10;;
56457;SDS011;42360;42.918;12.366;2022-08-19T01:33:11;14.30;;;4.40;;
56457;SDS011;42360;42.918;12.366;2022-08-19T01:35:38;12.05;;;4.07;;
56457;SDS011;42360;42.918;12.366;2022-08-19T01:38:05;18.20;;;4.53;;
56457;SDS011;42360;42.918;12.366;2022-08-19T01:40:33;11.02;;;4.20;;
56457;SDS011;42360;42.918;12.366;2022-08-19T01:43:01;19.73;;;4.50;;
56457;SDS011;42360;42.918;12.366;2022-08-19T01:45:28;12.75;;;5.15;;
56457;SDS011;42360;42.918;12.366;2022-08-19T01:47:55;14.27;;;4.68;;
56457;SDS011;42360;42.918;12.366;2022-08-19T01:50:21;11.80;;;4.28;;
56457;SDS011;42360;42.918;12.366;2022-08-19T01:52:47;14.18;;;4.78;;
56457;SDS011;42360;42.918;12.366;2022-08-19T01:55:16;13.48;;;4.70;;
56457;SDS011;42360;42.918;12.366;2022-08-19T01:57:44;9.73;;;4.25;;
56457;SDS011;42360;42.918;12.366;2022-08-19T02:00:15;11.15;;;4.22;;
56457;SDS011;42360;42.918;12.366;2022-08-19T02:02:42;13.52;;;4.57;;
56457;SDS011;42360;42.918;12.366;2022-08-19T02:05:08;12.90;;;4.60;;
56457;SDS011;42360;42.918;12.366;2022-08-19T02:07:35;12.65;;;5.05;;
56457;SDS011;42360;42.918;12.366;2022-08-19T02:10:03;14.90;;;4.43;;
56457;SDS011;42360;42.918;12.366;2022-08-19T02:12:30;11.38;;;3.88;;
56457;SDS011;42360;42.918;12.366;2022-08-19T02:14:56;13.55;;;5.15;;
56457;SDS011;42360;42.918;12.366;2022-08-19T02:17:21;17.30;;;4.85;;
56457;SDS011;42360;42.918;12.366;2022-08-19T02:19:47;14.00;;;4.85;;
56457;SDS011;42360;42.918;12.366;2022-08-19T02:22:14;12.82;;;5.43;;
56457;SDS011;42360;42.918;12.366;2022-08-19T02:24:39;13.55;;;4.97;;
56457;SDS011;42360;42.918;12.366;2022-08-19T02:27:05;10.10;;;4.13;;
56457;SDS011;42360;42.918;12.366;2022-08-19T02:29:31;14.82;;;4.70;;
56457;SDS011;42360;42.918;12.366;2022-08-19T02:31:56;8.68;;;3.67;;
56457;SDS011;42360;42.918;12.366;2022-08-19T02:34:23;12.27;;;4.43;;
56457;SDS011;42360;42.918;12.366;2022-08-19T02:36:50;13.82;;;4.53;;
56457;SDS011;42360;42.918;12.366;2022-08-19T02:39:16;11.30;;;4.03;;
56457;SDS011;42360;42.918;12.366;2022-08-19T02:41:42;17.05;;;4.65;;
56457;SDS011;42360;42.918;12.366;2022-08-19T02:44:08;11.07;;;4.43;;
56457;SDS011;42360;42.918;12.366;2022-08-19T02:46:34;13.65;;;4.10;;
56457;SDS011;42360;42.918;12.366;2022-08-19T02:49:02;14.32;;;5.03;;
56457;SDS011;42360;42.918;12.366;2022-08-19T02:51:33;15.35;;;5.90;;
56457;SDS011;42360;42.918;12.366;2022-08-19T02:54:01;15.10;;;5.05;;
56457;SDS011;42360;42.918;12.366;2022-08-19T02:56:27;17.27;;;4.72;;
56457;SDS011;42360;42.918;12.366;2022-08-19T02:58:54;17.17;;;4.15;;
56457;SDS011;42360;42.918;12.366;2022-08-19T03:01:24;15.15;;;4.97;;
56457;SDS011;42360;42.918;12.366;2022-08-19T03:03:52;15.32;;;4.30;;
56457;SDS011;42360;42.918;12.366;2022-08-19T03:06:18;15.10;;;4.78;;
56457;SDS011;42360;42.918;12.366;2022-08-19T03:08:45;11.07;;;4.20;;
56457;SDS011;42360;42.918;12.366;2022-08-19T03:11:13;13.70;;;4.88;;
56457;SDS011;42360;42.918;12.366;2022-08-19T03:13:39;10.45;;;4.40;;
56457;SDS011;42360;42.918;12.366;2022-08-19T03:16:05;15.40;;;5.03;;
56457;SDS011;42360;42.918;12.366;2022-08-19T03:18:31;12.32;;;4.70;;
56457;SDS011;42360;42.918;12.366;2022-08-19T03:20:56;16.00;;;4.82;;
56457;SDS011;42360;42.918;12.366;2022-08-19T03:23:23;15.30;;;4.45;;
56457;SDS011;42360;42.918;12.366;2022-08-19T03:25:49;12.60;;;4.20;;
56457;SDS011;42360;42.918;12.366;2022-08-19T03:28:16;13.27;;;4.03;;
56457;SDS011;42360;42.918;12.366;2022-08-19T03:30:42;15.68;;;5.32;;
56457;SDS011;42360;42.918;12.366;2022-08-19T03:33:09;12.63;;;4.20;;
56457;SDS011;42360;42.918;12.366;2022-08-19T03:35:37;11.43;;;4.18;;
56457;SDS011;42360;42.918;12.366;2022-08-19T03:38:05;13.07;;;4.38;;
56457;SDS011;42360;42.918;12.366;2022-08-19T03:40:32;9.68;;;4.10;;
56457;SDS011;42360;42.918;12.366;2022-08-19T03:43:01;14.40;;;4.80;;
56457;SDS011;42360;42.918;12.366;2022-08-19T03:45:27;15.30;;;4.80;;
56457;SDS011;42360;42.918;12.366;2022-08-19T03:47:53;11.60;;;5.38;;
56457;SDS011;42360;42.918;12.366;2022-08-19T03:50:19;11.27;;;3.83;;
56457;SDS011;42360;42.918;12.366;2022-08-19T03:52:48;16.92;;;5.32;;
56457;SDS011;42360;42.918;12.366;2022-08-19T03:55:15;10.90;;;4.30;;
56457;SDS011;42360;42.918;12.366;2022-08-19T03:57:42;16.73;;;5.65;;
56457;SDS011;42360;42.918;12.366;2022-08-19T04:00:07;15.10;;;4.55;;
56457;SDS011;42360;42.918;12.366;2022-08-19T04:02:34;15.27;;;4.22;;
56457;SDS011;42360;42.918;12.366;2022-08-19T04:05:00;16.83;;;4.40;;
56457;SDS011;42360;42.918;12.366;2022-08-19T04:07:26;11.45;;;4.18;;
56457;SDS011;42360;42.918;12.366;2022-08-19T04:09:51;14.05;;;6.10;;
56457;SDS011;42360;42.918;12.366;2022-08-19T04:12:18;12.57;;;4.45;;
56457;SDS011;42360;42.918;12.366;2022-08-19T04:14:45;12.68;;;4.90;;
56457;SDS011;42360;42.918;12.366;2022-08-19T04:17:11;9.85;;;4.63;;
56457;SDS011;42360;42.918;12.366;2022-08-19T04:19:37;14.25;;;4.50;;
56457;SDS011;42360;42.918;12.366;2022-08-19T04:22:03;15.63;;;4.80;;
56457;SDS011;42360;42.918;12.366;2022-08-19T04:24:30;12.07;;;5.82;;
56457;SDS011;42360;42.918;12.366;2022-08-19T04:26:56;15.32;;;5.18;;
56457;SDS011;42360;42.918;12.366;2022-08-19T04:29:23;13.93;;;4.95;;
56457;SDS011;42360;42.918;12.366;2022-08-19T04:31:50;16.55;;;5.72;;
56457;SDS011;42360;42.918;12.366;2022-08-19T04:34:19;12.60;;;5.07;;
56457;SDS011;42360;42.918;12.366;2022-08-19T04:36:49;14.57;;;5.03;;
56457;SDS011;42360;42.918;12.366;2022-08-19T04:39:22;15.23;;;5.40;;
56457;SDS011;42360;42.918;12.366;2022-08-19T04:42:09;12.50;;;4.80;;
56457;SDS011;42360;42.918;12.366;2022-08-19T04:44:53;14.48;;;6.65;;
56457;SDS011;42360;42.918;12.366;2022-08-19T04:47:19;9.43;;;4.68;;
56457;SDS011;42360;42.918;12.366;2022-08-19T04:49:45;11.77;;;5.43;;
56457;SDS011;42360;42.918;12.366;2022-08-19T04:52:11;13.68;;;5.00;;
56457;SDS011;42360;42.918;12.366;2022-08-19T04:54:36;16.77;;;5.75;;
56457;SDS011;42360;42.918;12.366;2022-08-19T04:57:03;20.05;;;5.60;;
56457;SDS011;42360;42.918;12.366;2022-08-19T04:59:31;13.35;;;5.40;;
56457;SDS011;42360;42.918;12.366;2022-08-19T05:01:58;11.20;;;5.55;;
56457;SDS011;42360;42.918;12.366;2022-08-19T05:04:24;11.80;;;5.60;;
56457;SDS011;42360;42.918;12.366;2022-08-19T05:06:49;16.38;;;6.03;;
56457;SDS011;42360;42.918;12.366;2022-08-19T05:09:16;16.10;;;5.20;;
56457;SDS011;42360;42.918;12.366;2022-08-19T05:11:42;9.65;;;5.75;;
56457;SDS011;42360;42.918;12.366;2022-08-19T05:14:09;9.82;;;5.90;;
56457;SDS011;42360;42.918;12.366;2022-08-19T05:16:37;14.48;;;5.55;;
56457;SDS011;42360;42.918;12.366;2022-08-19T05:19:03;13.40;;;5.75;;
56457;SDS011;42360;42.918;12.366;2022-08-19T05:21:47;16.08;;;5.70;;
56457;SDS011;42360;42.918;12.366;2022-08-19T05:24:31;17.95;;;5.50;;
56457;SDS011;42360;42.918;12.366;2022-08-19T05:26:59;10.32;;;5.65;;
56457;SDS011;42360;42.918;12.366;2022-08-19T05:29:28;13.63;;;6.72;;
56457;SDS011;42360;42.918;12.366;2022-08-19T05:31:56;14.45;;;5.53;;
56457;SDS011;42360;42.918;12.366;2022-08-19T05:34:23;16.30;;;5.85;;
56457;SDS011;42360;42.918;12.366;2022-08-19T05:36:52;11.65;;;6.40;;
56457;SDS011;42360;42.918;12.366;2022-08-19T05:39:22;11.32;;;4.82;;
56457;SDS011;42360;42.918;12.366;2022-08-19T05:41:51;11.23;;;3.78;;
56457;SDS011;42360;42.918;12.366;2022-08-19T05:44:23;13.63;;;4.03;;
56457;SDS011;42360;42.918;12.366;2022-08-19T05:46:50;8.60;;;4.45;;
56457;SDS011;42360;42.918;12.366;2022-08-19T05:49:19;8.23;;;3.90;;
56457;SDS011;42360;42.918;12.366;2022-08-19T05:51:47;11.00;;;4.45;;
56457;SDS011;42360;42.918;12.366;2022-08-19T05:54:13;13.20;;;4.97;;
56457;SDS011;42360;42.918;12.366;2022-08-19T05:56:39;11.02;;;3.83;;
56457;SDS011;42360;42.918;12.366;2022-08-19T05:59:06;9.57;;;3.67;;
56457;SDS011;42360;42.918;12.366;2022-08-19T06:01:34;8.93;;;3.63;;
56457;SDS011;42360;42.918;12.366;2022-08-19T06:04:01;10.45;;;4.20;;
56457;SDS011;42360;42.918;12.366;2022-08-19T06:06:27;12.77;;;3.83;;
56457;SDS011;42360;42.918;12.366;2022-08-19T06:08:53;10.35;;;4.07;;
56457;SDS011;42360;42.918;12.366;2022-08-19T06:11:20;11.40;;;4.40;;
56457;SDS011;42360;42.918;12.366;2022-08-19T06:13:49;9.90;;;3.92;;
56457;SDS011;42360;42.918;12.366;2022-08-19T06:16:18;12.10;;;3.80;;
56457;SDS011;42360;42.918;12.366;2022-08-19T06:18:51;5.88;;;3.55;;
56457;SDS011;42360;42.918;12.366;2022-08-19T06:21:18;11.90;;;4.05;;
56457;SDS011;42360;42.918;12.366;2022-08-19T06:23:48;7.67;;;4.10;;
56457;SDS011;42360;42.918;12.366;2022-08-19T06:26:15;7.05;;;3.83;;
56457;SDS011;42360;42.918;12.366;2022-08-19T06:28:41;6.63;;;3.30;;
56457;SDS011;42360;42.918;12.366;2022-08-19T06:31:10;12.10;;;3.53;;
56457;SDS011;42360;42.918;12.366;2022-08-19T06:33:39;6.68;;;3.05;;
56457;SDS011;42360;42.918;12.366;2022-08-19T06:36:05;6.20;;;2.50;;
56457;SDS011;42360;42.918;12.366;2022-08-19T06:38:31;7.07;;;2.83;;
56457;SDS011;42360;42.918;12.366;2022-08-19T06:41:02;9.77;;;3.00;;
56457;SDS011;42360;42.918;12.366;2022-08-19T06:43:29;7.95;;;2.80;;
56457;SDS011;42360;42.918;12.366;2022-08-19T06:45:55;8.65;;;3.40;;
56457;SDS011;42360;42.918;12.366;2022-08-19T06:48:21;8.38;;;2.83;;
56457;SDS011;42360;42.918;12.366;2022-08-19T06:50:46;4.80;;;2.30;;
56457;SDS011;42360;42.918;12.366;2022-08-19T06:53:14;7.13;;;2.35;;
56457;SDS011;42360;42.918;12.366;2022-08-19T06:55:40;5.55;;;2.17;;
56457;SDS011;42360;42.918;12.366;2022-08-19T06:58:06;6.60;;;2.03;;
56457;SDS011;42360;42.918;12.366;2022-08-19T07:00:32;3.40;;;1.40;;
56457;SDS011;42360;42.918;12.366;2022-08-19T07:02:58;4.22;;;1.77;;
56457;SDS011;42360;42.918;12.366;2022-08-19T07:05:25;6.47;;;2.08;;
56457;SDS011;42360;42.918;12.366;2022-08-19T07:07:51;4.03;;;1.80;;
56457;SDS011;42360;42.918;12.366;2022-08-19T07:10:17;3.97;;;1.90;;
56457;SDS011;42360;42.918;12.366;2022-08-19T07:12:43;4.70;;;1.90;;
56457;SDS011;42360;42.918;12.366;2022-08-19T07:15:09;5.93;;;1.95;;
56457;SDS011;42360;42.918;12.366;2022-08-19T07:17:36;8.15;;;2.30;;
56457;SDS011;42360;42.918;12.366;2022-08-19T07:20:05;4.18;;;1.92;;
56457;SDS011;42360;42.918;12.366;2022-08-19T07:22:35;7.28;;;3.53;;
56457;SDS011;42360;42.918;12.366;2022-08-19T07:25:01;7.32;;;2.30;;
56457;SDS011;42360;42.918;12.366;2022-08-19T07:27:28;4.30;;;1.50;;
56457;SDS011;42360;42.918;12.366;2022-08-19T07:29:54;5.10;;;1.98;;
56457;SDS011;42360;42.918;12.366;2022-08-19T07:32:20;7.05;;;2.28;;
56457;SDS011;42360;42.918;12.366;2022-08-19T07:34:45;3.53;;;2.00;;
56457;SDS011;42360;42.918;12.366;2022-08-19T07:37:11;7.82;;;3.10;;
56457;SDS011;42360;42.918;12.366;2022-08-19T07:39:37;4.68;;;2.95;;
56457;SDS011;42360;42.918;12.366;2022-08-19T07:42:06;5.05;;;2.75;;
56457;SDS011;42360;42.918;12.366;2022-08-19T07:44:34;2.55;;;2.35;;
56457;SDS011;42360;42.918;12.366;2022-08-19T07:47:00;2.13;;;1.50;;
56457;SDS011;42360;42.918;12.366;2022-08-19T07:49:27;5.45;;;2.17;;
56457;SDS011;42360;42.918;12.366;2022-08-19T07:51:57;4.53;;;2.05;;
56457;SDS011;42360;42.918;12.366;2022-08-19T07:54:26;4.60;;;1.80;;
56457;SDS011;42360;42.918;12.366;2022-08-19T07:56:53;5.78;;;2.95;;
56457;SDS011;42360;42.918;12.366;2022-08-19T07:59:19;2.28;;;1.25;;
56457;SDS011;42360;42.918;12.366;2022-08-19T08:01:46;5.93;;;1.75;;
56457;SDS011;42360;42.918;12.366;2022-08-19T08:04:12;3.95;;;1.60;;
56457;SDS011;42360;42.918;12.366;2022-08-19T08:06:56;8.68;;;2.33;;
56457;SDS011;42360;42.918;12.366;2022-08-19T08:09:41;4.90;;;3.10;;
56457;SDS011;42360;42.918;12.366;2022-08-19T08:12:13;3.83;;;2.15;;
56457;SDS011;42360;42.918;12.366;2022-08-19T08:14:44;5.28;;;1.92;;
56457;SDS011;42360;42.918;12.366;2022-08-19T08:17:12;4.40;;;2.30;;
56457;SDS011;42360;42.918;12.366;2022-08-19T08:19:39;2.97;;;2.00;;
56457;SDS011;42360;42.918;12.366;2022-08-19T08:22:06;3.05;;;1.50;;
56457;SDS011;42360;42.918;12.366;2022-08-19T08:24:32;4.30;;;1.20;;
56457;SDS011;42360;42.918;12.366;2022-08-19T08:27:00;7.07;;;2.17;;
56457;SDS011;42360;42.918;12.366;2022-08-19T08:29:29;6.03;;;1.90;;
56457;SDS011;42360;42.918;12.366;2022-08-19T08:31:56;4.18;;;1.98;;
56457;SDS011;42360;42.918;12.366;2022-08-19T08:34:22;4.03;;;1.50;;
56457;SDS011;42360;42.918;12.366;2022-08-19T08:36:48;1.98;;;1.70;;
56457;SDS011;42360;42.918;12.366;2022-08-19T08:39:16;2.05;;;1.48;;
56457;SDS011;42360;42.918;12.366;2022-08-19T08:41:50;1.30;;;1.20;;
56457;SDS011;42360;42.918;12.366;2022-08-19T08:47:03;3.10;;;1.73;;
56457;SDS011;42360;42.918;12.366;2022-08-19T08:49:45;2.15;;;1.45;;
56457;SDS011;42360;42.918;12.366;2022-08-19T08:52:26;2.00;;;1.55;;
56457;SDS011;42360;42.918;12.366;2022-08-19T08:54:55;4.25;;;1.70;;
56457;SDS011;42360;42.918;12.366;2022-08-19T09:00:00;2.50;;;1.67;;
56457;SDS011;42360;42.918;12.366;2022-08-19T09:02:30;2.25;;;1.48;;
56457;SDS011;42360;42.918;12.366;2022-08-19T09:04:55;2.33;;;1.60;;
56457;SDS011;42360;42.918;12.366;2022-08-19T09:07:40;3.95;;;1.27;;
56457;SDS011;42360;42.918;12.366;2022-08-19T09:10:24;1.80;;;1.33;;
56457;SDS011;42360;42.918;12.366;2022-08-19T09:12:57;2.50;;;1.50;;
56457;SDS011;42360;42.918;12.366;2022-08-19T09:15:30;1.73;;;1.23;;
56457;SDS011;42360;42.918;12.366;2022-08-19T09:18:01;2.17;;;1.30;;
56457;SDS011;42360;42.918;12.366;2022-08-19T09:20:29;2.10;;;1.00;;
56457;SDS011;42360;42.918;12.366;2022-08-19T09:22:56;3.38;;;1.45;;
56457;SDS011;42360;42.918;12.366;2022-08-19T09:25:23;4.15;;;1.73;;
56457;SDS011;42360;42.918;12.366;2022-08-19T09:27:50;11.70;;;9.70;;
56457;SDS011;42360;42.918;12.366;2022-08-19T09:30:26;23.77;;;21.60;;
56457;SDS011;42360;42.918;12.366;2022-08-19T09:32:53;17.80;;;16.27;;
56457;SDS011;42360;42.918;12.366;2022-08-19T09:35:26;3.00;;;2.22;;
56457;SDS011;42360;42.918;12.366;2022-08-19T09:37:53;2.03;;;1.70;;
56457;SDS011;42360;42.918;12.366;2022-08-19T09:40:20;1.75;;;1.30;;
56457;SDS011;42360;42.918;12.366;2022-08-19T09:42:46;18.90;;;13.68;;
56457;SDS011;42360;42.918;12.366;2022-08-19T09:45:13;17.25;;;13.85;;
56457;SDS011;42360;42.918;12.366;2022-08-19T09:47:39;11.27;;;9.45;;
56457;SDS011;42360;42.918;12.366;2022-08-19T09:50:05;19.50;;;14.93;;
56457;SDS011;42360;42.918;12.366;2022-08-19T09:52:33;9.85;;;7.28;;
56457;SDS011;42360;42.918;12.366;2022-08-19T09:55:05;8.85;;;4.60;;
56457;SDS011;42360;42.918;12.366;2022-08-19T09:57:32;2.95;;;2.05;;
56457;SDS011;42360;42.918;12.366;2022-08-19T09:59:57;3.75;;;1.80;;
56457;SDS011;42360;42.918;12.366;2022-08-19T10:02:23;3.40;;;1.58;;
56457;SDS011;42360;42.918;12.366;2022-08-19T10:04:50;2.22;;;1.73;;
56457;SDS011;42360;42.918;12.366;2022-08-19T10:07:34;5.32;;;1.85;;
56457;SDS011;42360;42.918;12.366;2022-08-19T10:10:00;2.72;;;1.67;;
56457;SDS011;42360;42.918;12.366;2022-08-19T10:12:26;2.65;;;1.48;;
56457;SDS011;42360;42.918;12.366;2022-08-19T10:14:52;2.72;;;1.95;;
56457;SDS011;42360;42.918;12.366;2022-08-19T10:17:19;3.60;;;2.70;;
56457;SDS011;42360;42.918;12.366;2022-08-19T10:19:45;2.90;;;1.67;;
56457;SDS011;42360;42.918;12.366;2022-08-19T10:22:10;3.58;;;2.20;;
56457;SDS011;42360;42.918;12.366;2022-08-19T10:24:39;3.80;;;1.70;;
56457;SDS011;42360;42.918;12.366;2022-08-19T10:27:06;2.75;;;1.80;;
56457;SDS011;42360;42.918;12.366;2022-08-19T10:29:32;3.83;;;1.98;;
56457;SDS011;42360;42.918;12.366;2022-08-19T10:32:06;5.00;;;1.85;;
56457;SDS011;42360;42.918;12.366;2022-08-19T10:34:34;8.57;;;2.20;;
56457;SDS011;42360;42.918;12.366;2022-08-19T10:37:01;12.70;;;3.22;;
56457;SDS011;42360;42.918;12.366;2022-08-19T10:39:28;5.90;;;2.00;;
56457;SDS011;42360;42.918;12.366;2022-08-19T10:41:55;6.38;;;1.75;;
56457;SDS011;42360;42.918;12.366;2022-08-19T10:44:22;5.13;;;2.40;;
56457;SDS011;42360;42.918;12.366;2022-08-19T10:46:49;4.28;;;1.73;;
56457;SDS011;42360;42.918;12.366;2022-08-19T10:49:16;4.35;;;1.77;;
56457;SDS011;42360;42.918;12.366;2022-08-19T10:51:44;7.57;;;2.70;;
56457;SDS011;42360;42.918;12.366;2022-08-19T10:54:28;6.65;;;2.97;;
56457;SDS011;42360;42.918;12.366;2022-08-19T10:57:13;4.82;;;2.50;;
56457;SDS011;42360;42.918;12.366;2022-08-19T10:59:39;8.10;;;3.00;;
56457;SDS011;42360;42.918;12.366;2022-08-19T11:02:06;5.10;;;2.22;;
56457;SDS011;42360;42.918;12.366;2022-08-19T11:04:35;5.17;;;2.97;;
56457;SDS011;42360;42.918;12.366;2022-08-19T11:07:04;4.15;;;1.88;;
56457;SDS011;42360;42.918;12.366;2022-08-19T11:09:31;3.30;;;1.63;;
56457;SDS011;42360;42.918;12.366;2022-08-19T11:12:03;5.55;;;2.40;;
56457;SDS011;42360;42.918;12.366;2022-08-19T11:14:29;3.95;;;2.00;;
56457;SDS011;42360;42.918;12.366;2022-08-19T11:16:56;12.50;;;3.95;;
56457;SDS011;42360;42.918;12.366;2022-08-19T11:19:22;5.25;;;2.30;;
56457;SDS011;42360;42.918;12.366;2022-08-19T11:21:49;3.35;;;1.95;;
56457;SDS011;42360;42.918;12.366;2022-08-19T11:24:16;4.75;;;2.35;;
56457;SDS011;42360;42.918;12.366;2022-08-19T11:26:47;10.43;;;2.67;;
56457;SDS011;42360;42.918;12.366;2022-08-19T11:29:18;4.00;;;1.73;;
56457;SDS011;42360;42.918;12.366;2022-08-19T11:31:46;5.05;;;2.67;;
56457;SDS011;42360;42.918;12.366;2022-08-19T11:34:15;69.43;;;19.52;;
56457;SDS011;42360;42.918;12.366;2022-08-19T11:36:43;11.65;;;4.00;;
56457;SDS011;42360;42.918;12.366;2022-08-19T11:39:12;32.95;;;8.70;;
56457;SDS011;42360;42.918;12.366;2022-08-19T11:41:39;3.95;;;2.28;;
56457;SDS011;42360;42.918;12.366;2022-08-19T11:44:05;11.70;;;4.25;;
56457;SDS011;42360;42.918;12.366;2022-08-19T11:46:33;3.83;;;1.90;;
56457;SDS011;42360;42.918;12.366;2022-08-19T11:48:59;2.67;;;1.75;;
56457;SDS011;42360;42.918;12.366;2022-08-19T11:51:25;4.25;;;1.83;;
56457;SDS011;42360;42.918;12.366;2022-08-19T11:53:55;5.00;;;1.95;;
56457;SDS011;42360;42.918;12.366;2022-08-19T11:56:22;3.28;;;1.48;;
56457;SDS011;42360;42.918;12.366;2022-08-19T11:58:48;3.80;;;1.55;;
56457;SDS011;42360;42.918;12.366;2022-08-19T12:01:15;2.60;;;1.80;;
56457;SDS011;42360;42.918;12.366;2022-08-19T12:03:43;4.00;;;2.78;;
56457;SDS011;42360;42.918;12.366;2022-08-19T12:06:14;2.40;;;1.70;;
56457;SDS011;42360;42.918;12.366;2022-08-19T12:08:41;2.25;;;1.65;;
56457;SDS011;42360;42.918;12.366;2022-08-19T12:11:08;3.13;;;1.52;;
56457;SDS011;42360;42.918;12.366;2022-08-19T12:13:35;2.55;;;1.30;;
56457;SDS011;42360;42.918;12.366;2022-08-19T12:16:06;2.47;;;1.67;;
56457;SDS011;42360;42.918;12.366;2022-08-19T12:18:37;2.35;;;1.60;;
56457;SDS011;42360;42.918;12.366;2022-08-19T12:21:04;3.75;;;1.80;;
56457;SDS011;42360;42.918;12.366;2022-08-19T12:23:30;1.88;;;1.20;;
56457;SDS011;42360;42.918;12.366;2022-08-19T12:25:55;2.55;;;2.33;;
56457;SDS011;42360;42.918;12.366;2022-08-19T12:28:23;2.08;;;1.23;;
56457;SDS011;42360;42.918;12.366;2022-08-19T12:30:50;2.70;;;1.35;;
56457;SDS011;42360;42.918;12.366;2022-08-19T12:33:17;3.70;;;1.50;;
56457;SDS011;42360;42.918;12.366;2022-08-19T12:35:44;1.70;;;1.30;;
56457;SDS011;42360;42.918;12.366;2022-08-19T12:38:11;2.15;;;1.38;;
56457;SDS011;42360;42.918;12.366;2022-08-19T12:40:39;1.50;;;1.40;;
56457;SDS011;42360;42.918;12.366;2022-08-19T12:43:05;2.85;;;1.77;;
56457;SDS011;42360;42.918;12.366;2022-08-19T12:45:31;2.33;;;1.45;;
56457;SDS011;42360;42.918;12.366;2022-08-19T12:47:57;2.13;;;1.45;;
56457;SDS011;42360;42.918;12.366;2022-08-19T12:50:23;2.70;;;1.50;;
56457;SDS011;42360;42.918;12.366;2022-08-19T12:52:48;2.03;;;1.13;;
56457;SDS011;42360;42.918;12.366;2022-08-19T12:55:14;1.50;;;1.30;;
56457;SDS011;42360;42.918;12.366;2022-08-19T12:57:40;2.50;;;1.30;;
56457;SDS011;42360;42.918;12.366;2022-08-19T13:02:34;4.03;;;1.40;;
56457;SDS011;42360;42.918;12.366;2022-08-19T13:05:01;2.85;;;1.35;;
56457;SDS011;42360;42.918;12.366;2022-08-19T13:07:27;2.65;;;1.40;;
56457;SDS011;42360;42.918;12.366;2022-08-19T13:09:53;3.33;;;1.50;;
56457;SDS011;42360;42.918;12.366;2022-08-19T13:12:18;2.42;;;1.40;;
56457;SDS011;42360;42.918;12.366;2022-08-19T13:14:46;4.05;;;1.52;;
56457;SDS011;42360;42.918;12.366;2022-08-19T13:17:16;1.80;;;1.52;;
56457;SDS011;42360;42.918;12.366;2022-08-19T13:19:41;1.45;;;1.35;;
56457;SDS011;42360;42.918;12.366;2022-08-19T13:22:07;3.33;;;1.30;;
56457;SDS011;42360;42.918;12.366;2022-08-19T13:24:33;1.58;;;1.02;;
56457;SDS011;42360;42.918;12.366;2022-08-19T13:26:59;1.73;;;1.48;;
56457;SDS011;42360;42.918;12.366;2022-08-19T13:29:25;1.63;;;1.20;;
56457;SDS011;42360;42.918;12.366;2022-08-19T13:32:09;2.72;;;1.48;;
56457;SDS011;42360;42.918;12.366;2022-08-19T13:34:53;1.42;;;1.30;;
56457;SDS011;42360;42.918;12.366;2022-08-19T13:37:18;1.70;;;1.27;;
56457;SDS011;42360;42.918;12.366;2022-08-19T13:40:04;2.67;;;1.60;;
56457;SDS011;42360;42.918;12.366;2022-08-19T13:42:30;3.00;;;1.50;;
56457;SDS011;42360;42.918;12.366;2022-08-19T13:44:57;2.33;;;1.58;;
56457;SDS011;42360;42.918;12.366;2022-08-19T13:47:23;4.68;;;1.98;;
56457;SDS011;42360;42.918;12.366;2022-08-19T13:49:49;4.75;;;2.15;;
56457;SDS011;42360;42.918;12.366;2022-08-19T13:52:15;9.20;;;2.30;;
56457;SDS011;42360;42.918;12.366;2022-08-19T13:54:40;3.72;;;2.00;;
56457;SDS011;42360;42.918;12.366;2022-08-19T13:57:06;6.88;;;2.28;;
56457;SDS011;42360;42.918;12.366;2022-08-19T13:59:32;4.53;;;2.10;;
56457;SDS011;42360;42.918;12.366;2022-08-19T14:01:58;7.70;;;2.05;;
56457;SDS011;42360;42.918;12.366;2022-08-19T14:04:25;5.60;;;1.60;;
56457;SDS011;42360;42.918;12.366;2022-08-19T14:06:51;3.92;;;1.50;;
56457;SDS011;42360;42.918;12.366;2022-08-19T14:09:16;3.03;;;1.10;;
56457;SDS011;42360;42.918;12.366;2022-08-19T14:11:42;3.63;;;1.13;;
56457;SDS011;42360;42.918;12.366;2022-08-19T14:14:10;2.40;;;1.10;;
56457;SDS011;42360;42.918;12.366;2022-08-19T14:16:36;1.85;;;1.27;;
56457;SDS011;42360;42.918;12.366;2022-08-19T14:19:01;1.70;;;1.10;;
56457;SDS011;42360;42.918;12.366;2022-08-19T14:21:27;3.53;;;1.10;;
56457;SDS011;42360;42.918;12.366;2022-08-19T14:23:53;2.08;;;1.00;;
56457;SDS011;42360;42.918;12.366;2022-08-19T14:26:19;2.65;;;1.30;;
56457;SDS011;42360;42.918;12.366;2022-08-19T14:28:46;1.50;;;1.10;;
56457;SDS011;42360;42.918;12.366;2022-08-19T14:31:12;3.03;;;0.93;;
56457;SDS011;42360;42.918;12.366;2022-08-19T14:33:41;2.78;;;1.40;;
56457;SDS011;42360;42.918;12.366;2022-08-19T14:36:07;4.20;;;1.10;;
56457;SDS011;42360;42.918;12.366;2022-08-19T14:38:33;2.20;;;1.23;;
56457;SDS011;42360;42.918;12.366;2022-08-19T14:41:09;1.38;;;1.27;;